Terminal Aerodrome Forecast
Issued by NWS

Home | Current Version | Previous Version | Text Only | Print | Product List | Glossary Off
Versions: 1 2 3 4 5 6 7 8 9 10 11 12 13 14 15 16 17 18 19

000
FTUS43 KUNR 170520
TAFGCC
TAF
KGCC 170520Z 1706/1806 28011KT P6SM VCSH SCT015 BKN035
      TEMPO 1706/1710 3SM -SHSN OVC015
     FM171000 31015KT P6SM BKN015
     FM171700 18011KT P6SM SCT100
     FM180400 21020G30KT P6SM BKN090=

USA.gov is the U.S. government's official web portal to all federal, state and local government web resources and services.